Time;durP1;ratioP1;P1;durP2;ratioP2;P2;SDS_P1;SDS_P2;PMS_P1;PMS_P2;Temp;Humidity;BMP_temperature;BMP_pressure;BME280_temperature;BME280_humidity;BME280_pressure;Samples;Min_cycle;Max_cycle;Signal;HPM_P1;HPM_P2
2021/08/25 00:00:13;;;;;;;6.70;5.30;;;15.50;96.00;;;;;;6155793;23;20396;-68
2021/08/25 00:02:40;;;;;;;6.83;5.73;;;15.40;96.10;;;;;;6155759;23;20493;-68
2021/08/25 00:05:09;;;;;;;7.40;6.70;;;15.40;96.10;;;;;;6155715;23;20760;-69
2021/08/25 00:07:36;;;;;;;6.60;5.97;;;15.40;96.00;;;;;;6155785;23;20426;-68
2021/08/25 00:10:03;;;;;;;8.37;6.33;;;15.40;96.10;;;;;;6155805;23;20740;-68
2021/08/25 00:12:31;;;;;;;8.37;6.30;;;15.40;96.20;;;;;;6155225;23;20438;-69
2021/08/25 00:14:58;;;;;;;6.60;5.90;;;15.30;96.20;;;;;;6155634;23;20392;-68
2021/08/25 00:17:26;;;;;;;6.47;5.67;;;15.30;96.30;;;;;;6155328;23;20427;-69
2021/08/25 00:19:53;;;;;;;11.80;6.50;;;15.30;96.50;;;;;;6155750;23;20438;-68
2021/08/25 00:22:20;;;;;;;11.10;6.87;;;15.30;96.60;;;;;;6155663;23;20443;-68
2021/08/25 00:24:47;;;;;;;7.20;5.87;;;15.30;96.60;;;;;;6155570;23;20445;-69
2021/08/25 00:27:14;;;;;;;6.80;5.63;;;15.30;96.60;;;;;;6155645;23;20711;-68
2021/08/25 00:29:41;;;;;;;8.03;7.20;;;15.30;96.50;;;;;;6155314;23;20437;-69
2021/08/25 00:32:09;;;;;;;8.00;7.10;;;15.30;96.60;;;;;;6155600;23;20392;-68
2021/08/25 00:34:37;;;;;;;7.50;6.80;;;15.30;96.60;;;;;;6155610;23;20398;-69
2021/08/25 00:37:04;;;;;;;7.27;5.90;;;15.40;96.70;;;;;;6155616;23;20437;-69
2021/08/25 00:39:31;;;;;;;7.50;6.80;;;15.40;96.50;;;;;;6155578;23;20392;-69
2021/08/25 00:41:58;;;;;;;7.17;6.30;;;15.40;96.50;;;;;;6156556;23;20498;-68
2021/08/25 00:44:25;;;;;;;7.70;6.60;;;15.40;96.60;;;;;;6157762;23;20454;-68
2021/08/25 00:46:52;;;;;;;7.03;6.00;;;15.40;96.40;;;;;;6157134;23;20395;-68
2021/08/25 00:49:20;;;;;;;6.97;6.20;;;15.50;96.50;;;;;;6157607;23;20395;-68
2021/08/25 00:51:49;;;;;;;9.17;6.30;;;15.50;96.40;;;;;;6157228;23;20490;-69
2021/08/25 00:54:17;;;;;;;11.60;6.70;;;15.50;96.50;;;;;;6156857;23;20967;-68
2021/08/25 00:56:44;;;;;;;8.00;5.97;;;15.40;96.40;;;;;;6157477;23;20453;-68
2021/08/25 00:59:12;;;;;;;8.10;6.40;;;15.40;96.70;;;;;;6157409;23;20438;-69
2021/08/25 01:01:48;;;;;;;6.57;5.87;;;15.40;96.70;;;;;;6157170;23;20481;-68
2021/08/25 01:04:22;;;;;;;7.23;6.30;;;15.30;96.80;;;;;;6157512;23;20434;-69
2021/08/25 01:06:50;;;;;;;8.23;6.20;;;15.30;96.80;;;;;;6157421;23;20406;-69
2021/08/25 01:09:19;;;;;;;8.10;5.50;;;15.30;96.60;;;;;;6157082;23;20917;-68
2021/08/25 01:11:48;;;;;;;7.40;6.20;;;15.30;96.50;;;;;;6156903;23;20923;-69
2021/08/25 01:14:16;;;;;;;8.03;6.60;;;15.30;96.40;;;;;;6156892;23;20402;-69
2021/08/25 01:16:46;;;;;;;7.03;6.17;;;15.30;96.60;;;;;;6156973;23;20423;-70
2021/08/25 01:19:14;;;;;;;7.50;6.47;;;15.30;96.80;;;;;;6156952;23;20959;-68
2021/08/25 01:21:42;;;;;;;9.17;7.00;;;15.30;96.70;;;;;;6157272;23;20387;-69
2021/08/25 01:24:14;;;;;;;7.20;5.80;;;15.30;96.70;;;;;;6157160;23;20395;-69
2021/08/25 01:26:42;;;;;;;6.67;5.40;;;15.30;96.70;;;;;;6157246;23;20394;-69
2021/08/25 01:29:21;;;;;;;11.00;6.77;;;15.30;96.70;;;;;;6157104;23;20462;-68
2021/08/25 01:31:48;;;;;;;10.33;6.80;;;15.30;96.70;;;;;;6157492;23;20388;-69
2021/08/25 01:34:15;;;;;;;7.53;6.17;;;15.30;96.80;;;;;;6157106;23;20422;-69
2021/08/25 01:36:42;;;;;;;9.30;7.50;;;15.30;96.90;;;;;;6156678;23;20391;-70
2021/08/25 01:39:14;;;;;;;7.13;6.43;;;15.30;96.90;;;;;;6156677;23;20961;-69
2021/08/25 01:41:41;;;;;;;8.10;7.30;;;15.30;96.90;;;;;;6157172;23;20415;-68
2021/08/25 01:44:08;;;;;;;8.90;6.80;;;15.40;96.90;;;;;;6157065;23;20441;-68
2021/08/25 01:46:38;;;;;;;9.23;6.00;;;15.40;96.90;;;;;;6156951;23;20782;-68
2021/08/25 01:49:07;;;;;;;8.13;6.20;;;15.40;96.90;;;;;;6156915;23;20404;-68
2021/08/25 01:51:35;;;;;;;7.37;6.60;;;15.40;96.80;;;;;;6156875;23;20454;-68
2021/08/25 01:54:03;;;;;;;7.90;6.20;;;15.50;96.60;;;;;;6157035;23;20423;-69
2021/08/25 01:56:30;;;;;;;6.70;5.67;;;15.50;96.70;;;;;;6156434;23;20455;-68
2021/08/25 01:58:58;;;;;;;9.43;5.50;;;15.50;96.70;;;;;;6156926;23;20391;-68
2021/08/25 02:01:25;;;;;;;8.17;6.33;;;15.50;96.50;;;;;;6156903;23;20450;-68
2021/08/25 02:03:54;;;;;;;8.07;6.60;;;15.50;96.40;;;;;;6156702;23;20434;-69
2021/08/25 02:06:21;;;;;;;8.47;5.67;;;15.50;96.30;;;;;;6156769;23;20396;-69
2021/08/25 02:08:48;;;;;;;6.37;5.67;;;15.50;96.30;;;;;;6156440;23;20894;-68
2021/08/25 02:11:15;;;;;;;7.53;6.30;;;15.50;96.10;;;;;;6156671;23;20707;-69
2021/08/25 02:13:42;;;;;;;7.87;6.17;;;15.50;95.80;;;;;;6156336;23;20918;-68
2021/08/25 02:16:09;;;;;;;6.70;5.57;;;15.50;96.00;;;;;;6156332;23;20438;-68
2021/08/25 02:18:36;;;;;;;6.47;5.87;;;15.40;95.80;;;;;;6156335;23;20435;-68
2021/08/25 02:21:05;;;;;;;7.30;5.90;;;15.40;95.90;;;;;;6156675;23;20721;-68
2021/08/25 02:23:32;;;;;;;12.30;6.53;;;15.40;96.20;;;;;;6156469;23;20474;-68
2021/08/25 02:25:59;;;;;;;8.60;6.33;;;15.40;95.70;;;;;;6156627;23;20396;-68
2021/08/25 02:28:26;;;;;;;7.20;6.47;;;15.40;95.50;;;;;;6156532;23;20446;-68
2021/08/25 02:30:53;;;;;;;7.60;6.87;;;15.40;95.70;;;;;;6156711;23;20687;-69
2021/08/25 02:33:20;;;;;;;6.97;6.13;;;15.40;95.60;;;;;;6156564;23;20431;-68
2021/08/25 02:35:47;;;;;;;7.27;6.00;;;15.30;95.40;;;;;;6153877;23;20487;-68
2021/08/25 02:38:16;;;;;;;8.67;6.93;;;15.30;95.40;;;;;;6156128;23;20434;-68
2021/08/25 02:40:43;;;;;;;11.57;6.47;;;15.30;95.60;;;;;;6156306;23;20442;-68
2021/08/25 02:43:10;;;;;;;9.87;7.93;;;15.30;95.40;;;;;;6156016;23;20997;-69
2021/08/25 02:45:37;;;;;;;8.00;6.50;;;15.20;95.50;;;;;;6156458;23;20474;-68
2021/08/25 02:48:05;;;;;;;8.30;7.10;;;15.30;95.60;;;;;;6156635;23;20400;-68
2021/08/25 02:50:32;;;;;;;10.50;6.90;;;15.30;95.60;;;;;;6156117;23;20434;-68
2021/08/25 02:52:59;;;;;;;9.00;7.30;;;15.30;95.70;;;;;;6156063;23;20431;-68
2021/08/25 02:55:27;;;;;;;8.77;6.20;;;15.20;95.70;;;;;;6155937;23;20442;-70
2021/08/25 02:57:54;;;;;;;8.93;7.30;;;15.20;95.90;;;;;;6156154;23;20786;-68
2021/08/25 03:00:21;;;;;;;7.90;7.10;;;15.20;95.80;;;;;;6155992;23;20431;-68
2021/08/25 03:02:48;;;;;;;7.60;6.80;;;15.20;95.90;;;;;;6156075;23;20439;-69
2021/08/25 03:05:15;;;;;;;9.30;8.10;;;15.20;95.70;;;;;;6155923;23;20704;-70
2021/08/25 03:07:43;;;;;;;8.43;7.63;;;15.20;95.60;;;;;;6156311;23;20427;-68
2021/08/25 03:10:11;;;;;;;10.10;7.57;;;15.20;95.70;;;;;;6156117;23;20423;-68
2021/08/25 03:12:39;;;;;;;10.93;8.23;;;15.20;95.80;;;;;;6156168;23;20399;-69
2021/08/25 03:15:09;;;;;;;10.70;9.03;;;15.20;96.00;;;;;;6155725;23;20395;-68
2021/08/25 03:17:36;;;;;;;10.30;7.80;;;15.20;95.90;;;;;;6156477;23;20427;-68
2021/08/25 03:20:04;;;;;;;9.67;7.40;;;15.20;96.10;;;;;;6156104;23;20418;-68
2021/08/25 03:22:31;;;;;;;10.40;7.97;;;15.30;96.20;;;;;;6155619;23;20427;-69
2021/08/25 03:24:58;;;;;;;10.60;8.67;;;15.30;96.10;;;;;;6156254;23;20431;-68
2021/08/25 03:27:25;;;;;;;9.70;8.70;;;15.30;96.10;;;;;;6155433;23;20406;-68
2021/08/25 03:29:54;;;;;;;8.10;6.90;;;15.30;96.10;;;;;;6155967;23;20399;-69
2021/08/25 03:32:21;;;;;;;8.93;8.03;;;15.30;96.20;;;;;;6156002;23;20419;-68
2021/08/25 03:34:48;;;;;;;11.80;7.93;;;15.30;96.20;;;;;;6155994;23;20434;-69
2021/08/25 03:37:16;;;;;;;7.80;7.00;;;15.20;96.20;;;;;;6154058;23;20723;-68
2021/08/25 03:39:43;;;;;;;11.93;7.23;;;15.30;96.30;;;;;;6155095;23;20734;-69
2021/08/25 03:42:15;;;;;;;10.07;8.33;;;15.30;96.40;;;;;;6155731;23;20396;-68
2021/08/25 03:44:42;;;;;;;9.20;8.00;;;15.30;96.20;;;;;;6155776;23;20533;-68
2021/08/25 03:47:11;;;;;;;9.33;8.00;;;15.30;96.10;;;;;;6155832;23;20396;-68
2021/08/25 03:49:38;;;;;;;8.80;7.47;;;15.20;96.00;;;;;;6155824;23;20431;-68
2021/08/25 03:52:06;;;;;;;10.83;9.20;;;15.20;96.10;;;;;;6155585;23;20478;-68
2021/08/25 03:54:33;;;;;;;8.80;7.90;;;15.20;96.40;;;;;;6155855;23;20426;-68
2021/08/25 03:57:00;;;;;;;9.20;7.83;;;15.20;96.20;;;;;;6155783;23;20411;-68
2021/08/25 03:59:27;;;;;;;9.40;8.00;;;15.20;96.20;;;;;;6155686;23;20427;-68
2021/08/25 04:01:54;;;;;;;10.87;7.90;;;15.20;96.10;;;;;;6155443;23;20921;-68
2021/08/25 04:04:22;;;;;;;9.40;8.10;;;15.20;96.10;;;;;;6155800;23;20802;-68
2021/08/25 04:06:49;;;;;;;10.47;8.10;;;15.20;96.00;;;;;;6155931;23;20454;-68
2021/08/25 04:09:16;;;;;;;10.17;8.80;;;15.10;96.20;;;;;;6156140;23;20395;-69
2021/08/25 04:11:43;;;;;;;7.73;6.93;;;15.00;96.20;;;;;;6155946;23;20403;-68
2021/08/25 04:14:10;;;;;;;8.90;7.47;;;15.00;96.20;;;;;;6155541;23;20427;-68
2021/08/25 04:16:37;;;;;;;8.70;7.70;;;15.00;96.20;;;;;;6155745;23;20423;-69
2021/08/25 04:19:04;;;;;;;8.43;6.87;;;14.90;96.40;;;;;;6155565;23;20437;-68
2021/08/25 04:21:33;;;;;;;9.40;8.00;;;14.90;96.30;;;;;;6155933;23;20398;-69
2021/08/25 04:24:00;;;;;;;8.10;7.10;;;14.90;96.40;;;;;;6155368;23;20474;-70
2021/08/25 04:26:27;;;;;;;11.33;8.23;;;15.00;96.60;;;;;;6152539;23;20428;-69
2021/08/25 04:28:55;;;;;;;9.90;8.90;;;15.00;96.60;;;;;;6155762;23;20399;-69
2021/08/25 04:31:22;;;;;;;11.70;7.97;;;15.00;96.60;;;;;;6155489;23;20890;-69
2021/08/25 04:33:52;;;;;;;9.20;7.50;;;15.10;96.60;;;;;;6155772;23;20755;-70
2021/08/25 04:36:19;;;;;;;8.40;6.93;;;15.10;96.50;;;;;;6155825;23;20383;-70
2021/08/25 04:38:48;;;;;;;6.87;6.17;;;15.10;96.40;;;;;;6155827;23;20403;-69
2021/08/25 04:41:16;;;;;;;6.70;6.00;;;15.10;96.30;;;;;;6156058;23;20781;-69
2021/08/25 04:43:43;;;;;;;8.40;7.20;;;15.10;96.00;;;;;;6155804;23;20440;-69
2021/08/25 04:46:15;;;;;;;10.20;7.60;;;15.10;96.00;;;;;;6155863;23;20403;-69
2021/08/25 04:48:42;;;;;;;7.93;7.13;;;15.20;96.00;;;;;;6155939;23;20428;-69
2021/08/25 04:51:11;;;;;;;10.20;6.43;;;15.20;96.00;;;;;;6155784;23;20719;-70
2021/08/25 04:53:38;;;;;;;8.47;6.13;;;15.20;95.70;;;;;;6155923;23;20431;-69
2021/08/25 04:56:07;;;;;;;8.73;6.60;;;15.20;95.70;;;;;;6155315;23;20458;-69
2021/08/25 04:58:34;;;;;;;10.43;7.30;;;15.20;95.70;;;;;;6155295;23;20906;-68
2021/08/25 05:01:02;;;;;;;8.77;7.87;;;15.20;95.70;;;;;;6155284;23;20887;-69
2021/08/25 05:03:34;;;;;;;9.50;8.00;;;15.20;95.70;;;;;;6155634;23;20467;-68
2021/08/25 05:06:06;;;;;;;10.17;7.10;;;15.20;95.60;;;;;;6155307;23;20388;-69
2021/08/25 05:08:35;;;;;;;8.90;7.30;;;15.20;95.70;;;;;;6152987;23;20419;-69
2021/08/25 05:11:02;;;;;;;8.80;7.90;;;15.20;95.80;;;;;;6155141;23;20396;-69
2021/08/25 05:13:31;;;;;;;11.20;7.83;;;15.20;95.80;;;;;;6155225;23;20396;-68
2021/08/25 05:15:59;;;;;;;9.33;8.03;;;15.30;95.80;;;;;;6155561;23;20399;-69
2021/08/25 05:18:28;;;;;;;9.30;7.90;;;15.30;95.70;;;;;;6151098;23;20402;-70
2021/08/25 05:20:55;;;;;;;7.70;6.50;;;15.40;95.70;;;;;;6154297;23;20420;-70
2021/08/25 05:23:24;;;;;;;11.73;7.40;;;15.40;95.70;;;;;;6155081;23;20439;-69
2021/08/25 05:25:52;;;;;;;8.90;6.53;;;15.50;95.40;;;;;;6155490;23;20395;-68
2021/08/25 05:28:21;;;;;;;6.70;5.80;;;15.50;95.30;;;;;;6156586;23;20426;-69
2021/08/25 05:30:49;;;;;;;11.47;7.77;;;15.50;95.40;;;;;;6157040;23;20403;-69
2021/08/25 05:33:17;;;;;;;10.30;7.00;;;15.50;95.30;;;;;;6156890;23;20391;-69
2021/08/25 05:35:44;;;;;;;8.00;6.17;;;15.50;95.00;;;;;;6157178;23;20407;-69
2021/08/25 05:38:11;;;;;;;12.30;7.97;;;15.60;95.20;;;;;;6156853;23;20400;-68
2021/08/25 05:40:40;;;;;;;7.90;6.77;;;15.60;95.20;;;;;;6157354;23;20466;-69
2021/08/25 05:43:09;;;;;;;8.63;5.77;;;15.60;94.90;;;;;;6154260;23;20442;-69
2021/08/25 05:45:39;;;;;;;7.80;6.40;;;15.60;94.50;;;;;;6156210;23;20957;-69
2021/08/25 05:48:08;;;;;;;8.10;7.27;;;15.70;94.50;;;;;;6156095;23;20399;-69
2021/08/25 05:50:35;;;;;;;8.50;6.80;;;15.70;94.00;;;;;;6156271;23;20457;-70
2021/08/25 05:53:19;;;;;;;8.20;6.13;;;15.60;94.30;;;;;;6155708;23;20750;-69
2021/08/25 05:55:51;;;;;;;6.93;5.87;;;15.60;94.40;;;;;;6156751;23;20394;-69
2021/08/25 05:58:18;;;;;;;8.10;6.47;;;15.60;94.20;;;;;;6156396;23;20388;-71
2021/08/25 06:00:45;;;;;;;7.37;6.43;;;15.60;94.20;;;;;;6153011;23;20446;-71
2021/08/25 06:03:14;;;;;;;9.63;7.17;;;15.60;94.50;;;;;;6155324;23;20934;-69
2021/08/25 06:05:41;;;;;;;6.90;6.17;;;15.70;94.60;;;;;;6155762;23;20446;-69
2021/08/25 06:08:14;;;;;;;8.53;6.07;;;15.70;94.50;;;;;;6155016;23;20487;-70
2021/08/25 06:10:46;;;;;;;6.43;5.57;;;15.70;93.80;;;;;;6154903;23;20383;-69
2021/08/25 06:13:13;;;;;;;6.90;5.83;;;15.70;94.00;;;;;;6155433;23;20391;-69
2021/08/25 06:15:40;;;;;;;6.43;5.70;;;15.60;94.10;;;;;;6153601;23;20422;-69
2021/08/25 06:18:08;;;;;;;7.10;5.60;;;15.60;94.40;;;;;;6155189;23;20400;-69
2021/08/25 06:20:40;;;;;;;9.57;6.00;;;15.70;94.40;;;;;;6153732;23;20744;-68
2021/08/25 06:23:09;;;;;;;6.17;5.30;;;15.70;94.10;;;;;;6155650;23;20387;-69
2021/08/25 06:25:35;;;;;;;7.03;5.40;;;15.80;94.20;;;;;;6155571;23;20438;-69
2021/08/25 06:28:03;;;;;;;7.07;6.37;;;15.80;94.40;;;;;;6155419;23;20439;-69
2021/08/25 06:30:29;;;;;;;6.70;6.00;;;15.90;94.00;;;;;;6154809;23;20439;-69
2021/08/25 06:32:59;;;;;;;7.23;6.17;;;15.90;94.10;;;;;;6154919;23;20890;-71
2021/08/25 06:35:26;;;;;;;7.10;5.83;;;15.90;93.70;;;;;;6154907;23;20439;-69
2021/08/25 06:37:55;;;;;;;6.90;5.40;;;16.00;93.50;;;;;;6154058;23;20396;-69
2021/08/25 06:40:22;;;;;;;8.20;5.60;;;16.00;93.40;;;;;;6154726;23;20411;-73
2021/08/25 06:42:49;;;;;;;6.23;4.83;;;16.10;93.30;;;;;;6155126;23;20398;-69
2021/08/25 06:45:17;;;;;;;5.63;5.03;;;16.20;93.30;;;;;;6155243;23;20453;-69
2021/08/25 06:47:44;;;;;;;4.97;4.17;;;16.30;93.40;;;;;;6156415;23;20392;-69
2021/08/25 06:50:12;;;;;;;5.90;5.30;;;16.40;93.30;;;;;;6155929;23;20442;-69
2021/08/25 06:52:43;;;;;;;5.40;4.83;;;16.40;92.90;;;;;;6155861;23;20746;-69
2021/08/25 06:55:17;;;;;;;7.93;6.13;;;16.50;93.10;;;;;;6156583;23;20422;-69
2021/08/25 06:57:44;;;;;;;5.63;4.53;;;16.50;92.80;;;;;;6156653;23;20467;-69
2021/08/25 07:00:14;;;;;;;5.73;4.50;;;16.70;92.40;;;;;;6154430;23;20437;-70
2021/08/25 07:02:41;;;;;;;5.33;4.40;;;16.80;92.50;;;;;;6156880;23;20698;-69
2021/08/25 07:05:09;;;;;;;5.00;4.50;;;16.90;92.40;;;;;;6155940;23;20493;-69
2021/08/25 07:07:36;;;;;;;5.03;4.50;;;17.10;92.10;;;;;;6156072;23;20923;-69
2021/08/25 07:10:04;;;;;;;6.17;4.87;;;17.30;91.60;;;;;;6154423;23;20437;-70
2021/08/25 07:12:33;;;;;;;4.93;4.07;;;17.50;90.80;;;;;;6156383;23;20434;-69
2021/08/25 07:15:06;;;;;;;5.43;4.87;;;17.50;90.30;;;;;;6156333;23;20439;-69
2021/08/25 07:17:33;;;;;;;5.60;4.20;;;17.50;90.30;;;;;;6155195;23;20387;-69
2021/08/25 07:20:00;;;;;;;6.10;4.60;;;17.40;90.70;;;;;;6155979;23;20755;-69
2021/08/25 07:22:31;;;;;;;5.63;4.30;;;17.30;90.50;;;;;;6156334;23;20450;-69
2021/08/25 07:24:58;;;;;;;8.87;4.47;;;17.30;90.60;;;;;;6156256;23;20475;-69
2021/08/25 07:27:25;;;;;;;7.10;4.80;;;17.30;90.60;;;;;;6156031;23;20441;-70
2021/08/25 07:29:53;;;;;;;5.23;4.50;;;17.20;90.60;;;;;;6155899;23;20399;-69
2021/08/25 07:32:20;;;;;;;5.70;4.73;;;17.20;90.30;;;;;;6156353;23;20431;-69
2021/08/25 07:34:47;;;;;;;5.63;5.03;;;17.20;90.40;;;;;;6155817;23;20886;-69
2021/08/25 07:37:14;;;;;;;5.50;4.70;;;17.10;90.40;;;;;;6156109;23;20418;-69
2021/08/25 07:39:46;;;;;;;5.13;3.83;;;17.20;90.90;;;;;;6156331;23;20715;-69
2021/08/25 07:42:13;;;;;;;5.73;4.80;;;17.20;90.90;;;;;;6156163;23;20438;-69
2021/08/25 07:44:40;;;;;;;6.40;4.37;;;17.20;90.50;;;;;;6155946;23;20443;-69
2021/08/25 07:47:09;;;;;;;6.07;4.90;;;17.20;90.70;;;;;;6155626;23;20442;-69
2021/08/25 07:49:36;;;;;;;5.40;4.07;;;17.30;90.00;;;;;;6155892;23;20739;-70
2021/08/25 07:52:03;;;;;;;5.03;4.17;;;17.30;89.70;;;;;;6155772;23;20719;-70
2021/08/25 07:54:31;;;;;;;8.17;4.20;;;17.30;90.30;;;;;;6156087;23;20419;-69
2021/08/25 07:56:58;;;;;;;4.70;3.93;;;17.30;90.20;;;;;;6156023;23;20427;-69
2021/08/25 07:59:25;;;;;;;4.73;4.27;;;17.40;90.40;;;;;;6155714;23;20391;-69
2021/08/25 08:01:52;;;;;;;4.73;3.80;;;17.60;90.20;;;;;;6155577;23;20400;-69
2021/08/25 08:04:20;;;;;;;4.97;3.83;;;17.60;89.60;;;;;;6155592;23;20435;-69
2021/08/25 08:06:47;;;;;;;5.10;3.90;;;17.70;88.80;;;;;;6155923;23;20395;-69
2021/08/25 08:09:19;;;;;;;4.80;4.13;;;17.80;89.20;;;;;;6155676;23;20427;-69
2021/08/25 08:11:46;;;;;;;4.00;3.53;;;17.90;88.10;;;;;;6155867;23;20431;-70
2021/08/25 08:14:15;;;;;;;4.73;3.43;;;18.00;88.50;;;;;;6155939;23;20430;-69
2021/08/25 08:16:44;;;;;;;5.80;3.63;;;18.10;88.20;;;;;;6155976;23;20392;-69
2021/08/25 08:19:20;;;;;;;6.40;3.90;;;18.30;88.80;;;;;;6156105;23;20482;-69
2021/08/25 08:21:49;;;;;;;4.40;4.00;;;18.40;86.90;;;;;;6155925;23;20380;-69
2021/08/25 08:24:17;;;;;;;4.93;3.60;;;18.70;87.10;;;;;;6156182;23;20474;-70
2021/08/25 08:26:45;;;;;;;4.70;3.73;;;19.20;90.10;;;;;;6155460;23;20430;-69
2021/08/25 08:29:12;;;;;;;5.23;3.80;;;19.50;85.60;;;;;;6155396;23;20403;-70
2021/08/25 08:31:39;;;;;;;3.83;3.43;;;20.00;88.80;;;;;;6155878;23;20435;-69
2021/08/25 08:34:06;;;;;;;4.63;3.10;;;20.60;85.90;;;;;;6155973;23;20431;-69
2021/08/25 08:36:34;;;;;;;3.83;3.17;;;21.30;84.70;;;;;;6155320;23;20395;-69
2021/08/25 08:39:02;;;;;;;4.57;3.10;;;21.50;77.60;;;;;;6155434;23;20399;-69
2021/08/25 08:41:29;;;;;;;6.47;2.97;;;21.80;79.10;;;;;;6155742;23;20438;-69
2021/08/25 08:43:57;;;;;;;5.23;3.70;;;21.90;76.00;;;;;;6155659;23;20462;-69
2021/08/25 08:46:26;;;;;;;4.97;3.30;;;21.80;72.00;;;;;;6155759;23;20408;-69
2021/08/25 08:48:55;;;;;;;5.70;4.10;;;21.80;71.30;;;;;;6155407;23;20395;-69
2021/08/25 08:51:25;;;;;;;3.90;3.17;;;21.60;71.50;;;;;;6155444;23;20442;-69
2021/08/25 08:53:53;;;;;;;6.20;3.77;;;21.50;71.40;;;;;;6155963;23;20454;-68
2021/08/25 08:56:22;;;;;;;6.83;3.77;;;21.40;70.80;;;;;;6155786;23;20403;-69
2021/08/25 08:58:50;;;;;;;4.87;3.30;;;21.40;70.90;;;;;;6155683;23;20453;-69
2021/08/25 09:01:17;;;;;;;3.63;3.00;;;21.30;70.80;;;;;;6155367;23;20407;-69
2021/08/25 09:03:44;;;;;;;4.77;3.30;;;21.20;72.10;;;;;;6157691;23;20402;-72
2021/08/25 09:06:12;;;;;;;4.90;3.30;;;21.10;71.20;;;;;;6157234;23;20470;-69
2021/08/25 09:08:41;;;;;;;4.13;3.03;;;21.10;72.10;;;;;;6157618;23;20765;-69
2021/08/25 09:11:11;;;;;;;3.73;2.97;;;21.40;74.70;;;;;;6157524;23;20453;-69
2021/08/25 09:13:42;;;;;;;4.27;3.40;;;21.80;70.80;;;;;;6157546;23;20774;-69
2021/08/25 09:16:24;;;;;;;3.80;3.20;;;22.20;70.30;;;;;;6157655;23;20379;-69
2021/08/25 09:19:00;;;;;;;3.33;2.67;;;22.40;72.00;;;;;;6157167;23;20387;-69
2021/08/25 09:21:32;;;;;;;4.60;3.10;;;23.10;74.30;;;;;;6157127;23;20905;-71
2021/08/25 09:23:59;;;;;;;4.03;3.23;;;23.60;68.70;;;;;;6156954;23;20384;-69
2021/08/25 09:26:26;;;;;;;4.20;2.70;;;24.20;69.50;;;;;;6157314;23;20470;-73
2021/08/25 09:28:55;;;;;;;3.00;2.30;;;24.80;64.90;;;;;;6157720;23;20763;-69
2021/08/25 09:31:22;;;;;;;3.83;2.70;;;25.10;63.00;;;;;;6157117;23;20930;-70
2021/08/25 09:33:50;;;;;;;7.27;4.10;;;25.30;64.20;;;;;;6157422;23;20453;-69
2021/08/25 09:36:19;;;;;;;4.47;3.13;;;25.60;60.50;;;;;;6156877;23;20399;-70
2021/08/25 09:38:53;;;;;;;6.80;5.10;;;25.90;61.60;;;;;;6157276;23;20398;-70
2021/08/25 09:41:21;;;;;;;10.13;5.57;;;26.30;58.50;;;;;;6157452;23;20426;-69
2021/08/25 09:43:49;;;;;;;5.33;3.93;;;26.40;56.10;;;;;;6156798;23;20438;-70
2021/08/25 09:46:20;;;;;;;4.77;3.47;;;26.30;55.40;;;;;;6156860;23;20470;-70
2021/08/25 09:48:48;;;;;;;6.00;3.80;;;26.00;54.50;;;;;;6157749;23;20384;-69
2021/08/25 09:51:17;;;;;;;4.83;3.50;;;25.60;54.90;;;;;;6157068;23;20395;-69
2021/08/25 09:53:46;;;;;;;6.23;3.90;;;25.20;54.40;;;;;;6156607;23;20940;-69
2021/08/25 09:56:32;;;;;;;6.53;3.90;;;25.00;56.40;;;;;;6157312;23;20762;-69
2021/08/25 09:59:00;;;;;;;4.23;3.37;;;24.90;58.10;;;;;;6157175;23;20443;-71
2021/08/25 10:01:29;;;;;;;4.93;3.20;;;25.10;60.50;;;;;;6156689;23;20887;-69
2021/08/25 10:03:57;;;;;;;5.43;3.77;;;25.20;61.40;;;;;;6157031;23;20432;-70
2021/08/25 10:06:25;;;;;;;5.00;3.90;;;25.60;61.60;;;;;;6156665;23;20458;-70
2021/08/25 10:08:54;;;;;;;6.40;3.73;;;25.90;61.20;;;;;;6156601;23;20431;-70
2021/08/25 10:11:24;;;;;;;5.17;3.90;;;26.00;58.00;;;;;;6157268;23;20402;-69
2021/08/25 10:13:51;;;;;;;5.20;3.83;;;25.90;54.30;;;;;;6156346;23;20465;-70
2021/08/25 10:16:38;;;;;;;4.40;3.43;;;25.70;54.10;;;;;;6157137;23;20410;-70
2021/08/25 10:19:24;;;;;;;5.50;4.40;;;25.40;53.90;;;;;;6156764;23;20414;-70
2021/08/25 10:21:52;;;;;;;6.50;3.40;;;25.20;54.70;;;;;;6156562;23;20391;-69
2021/08/25 10:24:19;;;;;;;4.27;3.87;;;25.20;53.30;;;;;;6156771;23;20410;-69
2021/08/25 10:27:08;;;;;;;4.20;3.10;;;25.10;53.90;;;;;;6155680;23;20433;-70
2021/08/25 10:30:08;;;;;;;5.27;3.00;;;25.00;54.90;;;;;;6156381;23;20399;-69
2021/08/25 10:32:38;;;;;;;3.30;2.70;;;24.80;56.30;;;;;;6156416;23;20412;-69
2021/08/25 10:35:18;;;;;;;3.60;2.80;;;24.80;55.80;;;;;;6156794;23;20689;-69
2021/08/25 10:37:51;;;;;;;4.33;3.30;;;24.70;55.80;;;;;;6156883;23;20387;-69
2021/08/25 10:40:31;;;;;;;6.93;3.23;;;24.70;55.90;;;;;;6156819;23;20417;-69
2021/08/25 10:43:02;;;;;;;3.50;2.80;;;24.70;56.70;;;;;;6156568;23;20387;-69
2021/08/25 10:46:01;;;;;;;4.83;3.20;;;24.90;57.40;;;;;;6156588;23;20469;-70
2021/08/25 10:48:57;;;;;;;4.50;3.00;;;25.00;55.60;;;;;;6156789;23;20379;-69
2021/08/25 10:51:33;;;;;;;4.70;3.30;;;25.30;57.30;;;;;;6037523;23;20430;-70
2021/08/25 10:54:00;;;;;;;4.20;3.33;;;25.60;56.40;;;;;;6156760;23;20454;-70
2021/08/25 10:56:33;;;;;;;4.10;3.10;;;25.80;55.80;;;;;;6156191;23;20405;-70
2021/08/25 10:59:03;;;;;;;4.70;3.20;;;26.00;52.60;;;;;;6156562;23;20418;-69
2021/08/25 11:01:38;;;;;;;4.13;3.00;;;26.00;51.90;;;;;;6156449;23;20399;-69
2021/08/25 11:04:11;;;;;;;4.73;2.87;;;25.90;51.70;;;;;;6156449;23;20383;-69
2021/08/25 11:06:40;;;;;;;4.10;2.97;;;25.70;53.00;;;;;;6155873;23;20434;-69
2021/08/25 11:09:12;;;;;;;3.63;2.60;;;25.60;53.50;;;;;;6156520;23;20403;-69
2021/08/25 11:11:39;;;;;;;4.70;3.67;;;25.50;53.80;;;;;;6156253;23;20395;-69
2021/08/25 11:14:06;;;;;;;5.20;3.37;;;25.40;55.20;;;;;;6156208;23;20404;-69
2021/08/25 11:16:33;;;;;;;5.20;3.40;;;25.40;53.60;;;;;;6155928;23;20444;-69
2021/08/25 11:19:00;;;;;;;4.80;3.53;;;25.50;51.50;;;;;;6155505;23;20434;-69
2021/08/25 11:21:28;;;;;;;5.57;3.07;;;25.60;51.80;;;;;;6155427;23;20434;-70
2021/08/25 11:23:58;;;;;;;4.97;3.10;;;25.80;51.30;;;;;;6155761;23;20731;-70
2021/08/25 11:26:31;;;;;;;6.73;3.80;;;25.90;52.00;;;;;;6155786;23;20478;-69
2021/08/25 11:29:03;;;;;;;5.43;3.90;;;25.90;49.70;;;;;;6155755;23;20859;-72
2021/08/25 11:31:30;;;;;;;4.90;3.30;;;25.90;50.40;;;;;;6156184;23;20387;-69
2021/08/25 11:34:16;;;;;;;7.33;4.00;;;25.90;49.90;;;;;;6155643;23;20446;-69
2021/08/25 11:36:56;;;;;;;4.43;3.20;;;25.70;50.50;;;;;;6156579;23;20448;-69
2021/08/25 11:39:23;;;;;;;4.97;3.60;;;25.60;49.50;;;;;;6156217;23;20402;-70
2021/08/25 11:41:51;;;;;;;4.30;3.50;;;25.40;52.10;;;;;;6155645;23;20450;-69
2021/08/25 11:44:36;;;;;;;4.87;2.70;;;25.30;52.60;;;;;;6155348;23;20415;-69
2021/08/25 11:47:16;;;;;;;5.00;3.03;;;25.40;54.20;;;;;;6155029;23;21020;-70
2021/08/25 11:49:46;;;;;;;7.80;3.37;;;25.40;53.40;;;;;;6155354;23;20735;-69
2021/08/25 11:52:34;;;;;;;4.40;3.00;;;25.50;50.30;;;;;;6155478;23;20463;-69
2021/08/25 11:55:05;;;;;;;5.10;3.80;;;25.40;52.60;;;;;;6155368;23;20441;-69
2021/08/25 11:57:53;;;;;;;5.00;3.40;;;25.50;52.90;;;;;;6155566;23;20391;-68
2021/08/25 12:00:22;;;;;;;5.10;3.53;;;25.60;53.00;;;;;;6155081;23;20434;-68
2021/08/25 12:02:58;;;;;;;5.93;3.30;;;25.70;51.40;;;;;;6154659;23;20887;-68
2021/08/25 12:05:28;;;;;;;5.40;3.77;;;25.70;50.30;;;;;;6155510;23;20427;-68
2021/08/25 12:08:01;;;;;;;4.40;3.17;;;25.70;49.80;;;;;;6155070;23;20434;-68
2021/08/25 12:10:29;;;;;;;3.50;2.70;;;25.60;52.00;;;;;;6155063;23;20652;-68
2021/08/25 12:12:57;;;;;;;4.83;2.70;;;25.60;52.60;;;;;;6155301;23;20908;-68
2021/08/25 12:15:42;;;;;;;4.13;3.03;;;25.70;50.90;;;;;;6155365;23;20401;-70
2021/08/25 12:18:11;;;;;;;5.40;2.80;;;25.70;49.50;;;;;;6155612;23;20441;-68
2021/08/25 12:20:39;;;;;;;4.83;2.73;;;25.60;49.80;;;;;;6155484;23;20406;-68
2021/08/25 12:23:09;;;;;;;5.30;3.30;;;25.60;50.10;;;;;;6155550;23;20399;-68
2021/08/25 12:25:38;;;;;;;5.07;3.47;;;25.70;51.80;;;;;;6155345;23;20470;-68
2021/08/25 12:28:05;;;;;;;4.50;2.60;;;25.80;50.40;;;;;;6154908;23;20406;-68
2021/08/25 12:30:36;;;;;;;5.30;3.00;;;25.90;50.40;;;;;;6155013;23;20926;-68
2021/08/25 12:33:05;;;;;;;4.30;2.93;;;25.90;50.20;;;;;;6155646;23;20766;-68
2021/08/25 12:35:32;;;;;;;4.50;2.60;;;25.80;50.30;;;;;;6155026;23;20464;-68
2021/08/25 12:38:00;;;;;;;5.47;3.27;;;25.70;49.50;;;;;;6157231;23;20400;-68
2021/08/25 12:40:29;;;;;;;4.80;2.90;;;25.70;49.10;;;;;;6157648;23;20427;-68
2021/08/25 12:42:59;;;;;;;4.77;3.50;;;25.60;50.20;;;;;;6157390;23;20708;-68
2021/08/25 12:45:27;;;;;;;4.27;3.03;;;25.70;50.70;;;;;;6156882;23;20430;-68
2021/08/25 12:47:55;;;;;;;6.10;3.20;;;25.70;50.30;;;;;;6157468;23;20453;-68
2021/08/25 12:50:24;;;;;;;6.43;3.13;;;25.70;49.20;;;;;;6157146;23;20882;-68
2021/08/25 12:52:52;;;;;;;4.10;3.20;;;25.60;48.70;;;;;;6156955;23;20423;-68
2021/08/25 12:55:20;;;;;;;5.07;2.93;;;25.50;47.90;;;;;;6157053;23;20400;-68